createdAt,value
2022-09-28T00:00:37.655Z, 22.46
2022-09-28T00:01:37.780Z, 22.43
2022-09-28T00:02:37.805Z, 22.44
2022-09-28T00:03:37.792Z, 22.45
2022-09-28T00:04:37.850Z, 22.48
2022-09-28T00:05:37.875Z, 22.45
2022-09-28T00:06:38.881Z, 22.46
2022-09-28T00:07:37.906Z, 22.46
2022-09-28T00:08:37.982Z, 22.44
2022-09-28T00:09:38.034Z, 22.47
2022-09-28T00:10:39.043Z, 22.45
2022-09-28T00:11:38.041Z, 22.44
2022-09-28T00:12:38.077Z, 22.47
2022-09-28T00:13:38.093Z, 22.45
2022-09-28T00:14:38.140Z, 22.45
2022-09-28T00:15:38.178Z, 22.45
2022-09-28T00:16:39.324Z, 22.46
2022-09-28T00:17:38.247Z, 22.46
2022-09-28T00:18:38.366Z, 22.43
2022-09-28T00:19:38.335Z, 22.46
2022-09-28T00:20:38.333Z, 22.46
2022-09-28T00:21:38.461Z, 22.46
2022-09-28T00:22:38.497Z, 22.43
2022-09-28T00:23:39.499Z, 22.45
2022-09-28T00:24:38.460Z, 22.46
2022-09-28T00:25:38.760Z, 22.45
2022-09-28T00:26:38.523Z, 22.45
2022-09-28T00:27:38.559Z, 22.44
2022-09-28T00:28:38.577Z, 22.44
2022-09-28T00:29:38.655Z, 22.43
2022-09-28T00:30:38.770Z, 22.46
2022-09-28T00:31:38.795Z, 22.47
2022-09-28T00:32:38.740Z, 22.42
2022-09-28T00:33:38.813Z, 22.46
2022-09-28T00:34:38.840Z, 22.46
2022-09-28T00:35:39.813Z, 22.44
2022-09-28T00:36:38.881Z, 22.43
2022-09-28T00:37:38.904Z, 22.45
2022-09-28T00:38:38.967Z, 22.42
2022-09-28T00:39:38.988Z, 22.44
2022-09-28T00:40:39.106Z, 22.45
2022-09-28T00:41:39.111Z, 22.46
2022-09-28T00:42:39.148Z, 22.42
2022-09-28T00:43:39.131Z, 22.45
2022-09-28T00:44:39.122Z, 22.45
2022-09-28T00:45:39.235Z, 22.42
2022-09-28T00:46:39.271Z, 22.45
2022-09-28T00:47:39.356Z, 22.47
2022-09-28T00:48:39.269Z, 22.47
2022-09-28T00:49:39.307Z, 22.43
2022-09-28T00:50:39.325Z, 22.43
2022-09-28T00:51:39.357Z, 22.45
2022-09-28T00:52:39.460Z, 22.43
2022-09-28T00:53:39.454Z, 22.45
2022-09-28T00:54:39.455Z, 22.43
2022-09-28T00:55:39.596Z, 22.44
2022-09-28T00:56:39.532Z, 22.45
2022-09-28T00:57:39.562Z, 22.43
2022-09-28T00:58:40.637Z, 22.43
2022-09-28T00:59:39.676Z, 22.43
2022-09-28T01:00:39.696Z, 22.45
2022-09-28T01:01:39.749Z, 22.43
2022-09-28T01:02:39.779Z, 22.45
2022-09-28T01:03:39.831Z, 22.44
2022-09-28T01:04:39.794Z, 22.44
2022-09-28T01:05:39.843Z, 22.45
2022-09-28T01:06:39.869Z, 22.45
2022-09-28T01:07:39.939Z, 22.44
2022-09-28T01:08:39.926Z, 22.43
2022-09-28T01:09:39.962Z, 22.45
2022-09-28T01:10:41.022Z, 22.44
2022-09-28T01:11:40.093Z, 22.41
2022-09-28T01:12:40.087Z, 22.42
2022-09-28T01:13:40.094Z, 22.42
2022-09-28T01:14:40.137Z, 22.43
2022-09-28T01:15:41.191Z, 22.43
2022-09-28T01:16:40.233Z, 22.46
2022-09-28T01:17:40.223Z, 22.40
2022-09-28T01:18:40.276Z, 22.41
2022-09-28T01:19:40.285Z, 22.43
2022-09-28T01:20:41.369Z, 22.47
2022-09-28T01:21:40.412Z, 22.43
2022-09-28T01:22:40.469Z, 22.43
2022-09-28T01:23:40.492Z, 22.43
2022-09-28T01:24:40.451Z, 22.44
2022-09-28T01:25:40.515Z, 22.46
2022-09-28T01:26:40.605Z, 22.42
2022-09-28T01:27:40.642Z, 22.43
2022-09-28T01:28:41.671Z, 22.44
2022-09-28T01:29:40.785Z, 22.42
2022-09-28T01:30:40.764Z, 22.44
2022-09-28T01:31:40.992Z, 22.44
2022-09-28T01:32:40.791Z, 22.43
2022-09-28T01:33:40.794Z, 22.40
2022-09-28T01:34:40.842Z, 22.45
2022-09-28T01:35:40.837Z, 22.40
2022-09-28T01:36:40.867Z, 22.43
2022-09-28T01:37:40.898Z, 22.42
2022-09-28T01:38:40.999Z, 22.43
2022-09-28T01:39:40.983Z, 22.42
2022-09-28T01:40:41.036Z, 22.44
2022-09-28T01:41:41.021Z, 22.44
2022-09-28T01:42:41.050Z, 22.46
2022-09-28T01:43:41.093Z, 22.44
2022-09-28T01:44:41.201Z, 22.42
2022-09-28T01:45:41.270Z, 22.40
2022-09-28T01:46:42.215Z, 22.42
2022-09-28T01:47:41.259Z, 22.41
2022-09-28T01:48:41.268Z, 22.43
2022-09-28T01:49:42.305Z, 22.42
2022-09-28T01:50:42.324Z, 22.42
2022-09-28T01:51:41.373Z, 22.42
2022-09-28T01:52:41.405Z, 22.42
2022-09-28T01:53:41.448Z, 22.42
2022-09-28T01:54:41.462Z, 22.44
2022-09-28T01:55:41.486Z, 22.42
2022-09-28T01:56:42.529Z, 22.43
2022-09-28T01:57:41.543Z, 22.45
2022-09-28T01:58:41.667Z, 22.42
2022-09-28T01:59:41.660Z, 22.41
2022-09-28T02:00:41.729Z, 22.41
2022-09-28T02:01:41.794Z, 22.41
2022-09-28T02:02:41.822Z, 22.42
2022-09-28T02:03:41.779Z, 22.42
2022-09-28T02:04:41.815Z, 22.42
2022-09-28T02:05:41.954Z, 22.41
2022-09-28T02:06:41.892Z, 22.44
2022-09-28T02:07:41.930Z, 22.43
2022-09-28T02:08:42.010Z, 22.44
2022-09-28T02:09:42.079Z, 22.44
2022-09-28T02:10:42.066Z, 22.41
2022-09-28T02:11:42.110Z, 22.42
2022-09-28T02:12:42.108Z, 22.41
2022-09-28T02:13:42.190Z, 22.40
2022-09-28T02:14:43.262Z, 22.42
2022-09-28T02:15:42.217Z, 22.41
2022-09-28T02:16:42.367Z, 22.41
2022-09-28T02:17:42.303Z, 22.42
2022-09-28T02:18:42.347Z, 22.41
2022-09-28T02:19:43.367Z, 22.38
2022-09-28T02:20:42.443Z, 22.41
2022-09-28T02:21:42.467Z, 22.43
2022-09-28T02:22:43.519Z, 22.43
2022-09-28T02:23:42.526Z, 22.42
2022-09-28T02:24:42.504Z, 22.39
2022-09-28T02:25:42.549Z, 22.40
2022-09-28T02:26:42.579Z, 22.40
2022-09-28T02:27:42.700Z, 22.40
2022-09-28T02:28:42.676Z, 22.41
2022-09-28T02:29:42.731Z, 22.43
2022-09-28T02:30:42.731Z, 22.41
2022-09-28T02:31:42.828Z, 22.44
2022-09-28T02:32:42.823Z, 22.42
2022-09-28T02:33:42.848Z, 22.41
2022-09-28T02:34:42.910Z, 22.42
2022-09-28T02:35:42.974Z, 22.42
2022-09-28T02:36:42.989Z, 22.40
2022-09-28T02:37:42.993Z, 22.42
2022-09-28T02:38:43.061Z, 22.42
2022-09-28T02:39:44.088Z, 22.40
2022-09-28T02:40:43.134Z, 22.44
2022-09-28T02:41:43.091Z, 22.41
2022-09-28T02:42:43.137Z, 22.39
2022-09-28T02:43:43.250Z, 22.42
2022-09-28T02:44:43.262Z, 22.41
2022-09-28T02:45:43.291Z, 22.42
2022-09-28T02:46:43.355Z, 22.42
2022-09-28T02:47:43.328Z, 22.42
2022-09-28T02:48:44.753Z, 22.40
2022-09-28T02:49:44.388Z, 22.43
2022-09-28T02:50:44.419Z, 22.42
2022-09-28T02:51:43.474Z, 22.41
2022-09-28T02:52:43.503Z, 22.43
2022-09-28T02:53:43.584Z, 22.41
2022-09-28T02:54:43.562Z, 22.41
2022-09-28T02:55:43.593Z, 22.39
2022-09-28T02:56:44.640Z, 22.40
2022-09-28T02:57:43.649Z, 22.43
2022-09-28T02:58:43.687Z, 22.41
2022-09-28T02:59:43.781Z, 22.38
2022-09-28T03:00:43.824Z, 22.41
2022-09-28T03:01:43.882Z, 22.41
2022-09-28T03:02:44.865Z, 22.41
2022-09-28T03:03:43.935Z, 22.43
2022-09-28T03:04:43.929Z, 22.42
2022-09-28T03:05:44.034Z, 22.40
2022-09-28T03:06:43.943Z, 22.40
2022-09-28T03:07:43.992Z, 22.39
2022-09-28T03:08:44.065Z, 22.40
2022-09-28T03:09:44.072Z, 22.41
2022-09-28T03:10:44.146Z, 22.40
2022-09-28T03:11:45.203Z, 22.39
2022-09-28T03:12:45.187Z, 22.41
2022-09-28T03:13:45.194Z, 22.41
2022-09-28T03:14:44.279Z, 22.38
2022-09-28T03:15:48.542Z, 22.41
2022-09-28T03:16:44.441Z, 22.41
2022-09-28T03:17:44.346Z, 22.38
2022-09-28T03:18:44.365Z, 22.41
2022-09-28T03:19:44.434Z, 22.38
2022-09-28T03:20:44.529Z, 22.39
2022-09-28T03:21:44.500Z, 22.39
2022-09-28T03:22:52.048Z, 22.38
2022-09-28T03:23:44.541Z, 22.40
2022-09-28T03:24:44.632Z, 22.40
2022-09-28T03:25:44.675Z, 22.37
2022-09-28T03:26:44.683Z, 22.41
2022-09-28T03:27:44.698Z, 22.42
2022-09-28T03:28:44.721Z, 22.40
2022-09-28T03:29:44.823Z, 22.42
2022-09-28T03:30:44.810Z, 22.39
2022-09-28T03:31:44.870Z, 22.41
2022-09-28T03:32:44.882Z, 22.41
2022-09-28T03:33:45.952Z, 22.39
2022-09-28T03:34:45.022Z, 22.40
2022-09-28T03:35:45.139Z, 22.41
2022-09-28T03:36:45.021Z, 22.38
2022-09-28T03:37:46.018Z, 22.38
2022-09-28T03:38:45.081Z, 22.39
2022-09-28T03:39:45.126Z, 22.38
2022-09-28T03:40:45.224Z, 22.40
2022-09-28T03:41:45.209Z, 22.41
2022-09-28T03:42:46.240Z, 22.39
2022-09-28T03:43:45.298Z, 22.37
2022-09-28T03:44:45.277Z, 22.39
2022-09-28T03:45:45.365Z, 22.39
2022-09-28T03:46:45.336Z, 22.41
2022-09-28T03:47:45.363Z, 22.39
2022-09-28T03:48:45.464Z, 22.40
2022-09-28T03:49:45.441Z, 22.40
2022-09-28T03:50:45.458Z, 22.40
2022-09-28T03:51:45.498Z, 22.39
2022-09-28T03:52:45.525Z, 22.41
2022-09-28T03:53:45.593Z, 22.41
2022-09-28T03:54:49.031Z, 22.39
2022-09-28T03:55:45.628Z, 22.42
2022-09-28T03:56:45.661Z, 22.40
2022-09-28T03:57:45.670Z, 22.37
2022-09-28T03:58:45.787Z, 22.39
2022-09-28T03:59:45.785Z, 22.40
2022-09-28T04:00:45.856Z, 22.37
2022-09-28T04:01:45.876Z, 22.40
2022-09-28T04:02:45.902Z, 22.40
2022-09-28T04:03:45.903Z, 22.39
2022-09-28T04:04:45.945Z, 22.40
2022-09-28T04:05:45.970Z, 22.38
2022-09-28T04:06:46.017Z, 22.38
2022-09-28T04:07:46.049Z, 22.42
2022-09-28T04:08:46.086Z, 22.38
2022-09-28T04:09:46.112Z, 22.40
2022-09-28T04:10:46.120Z, 22.42
2022-09-28T04:12:02.867Z, 22.41
2022-09-28T04:12:46.223Z, 22.41
2022-09-28T04:13:46.283Z, 22.44
2022-09-28T04:14:46.264Z, 22.41
2022-09-28T04:15:46.311Z, 22.43
2022-09-28T04:16:46.370Z, 22.43
2022-09-28T04:17:46.340Z, 22.44
2022-09-28T04:18:47.389Z, 22.47
2022-09-28T04:19:46.499Z, 22.42
2022-09-28T04:20:46.509Z, 22.42
2022-09-28T04:21:46.982Z, 22.44
2022-09-28T04:22:46.527Z, 22.42
2022-09-28T04:23:46.631Z, 22.43
2022-09-28T04:24:46.608Z, 22.45
2022-09-28T04:25:46.609Z, 22.44
2022-09-28T04:26:46.703Z, 22.43
2022-09-28T04:27:46.660Z, 22.45
2022-09-28T04:28:46.794Z, 22.43
2022-09-28T04:29:46.827Z, 22.43
2022-09-28T04:30:47.824Z, 22.48
2022-09-28T04:31:46.944Z, 22.44
2022-09-28T04:32:46.927Z, 22.45
2022-09-28T04:33:46.969Z, 22.47
2022-09-28T04:34:46.941Z, 22.44
2022-09-28T04:35:46.974Z, 22.45
2022-09-28T04:36:47.034Z, 22.46
2022-09-28T04:37:47.067Z, 22.47
2022-09-28T04:38:52.732Z, 22.46
2022-09-28T04:39:48.587Z, 22.48
2022-09-28T04:40:47.267Z, 22.45
2022-09-28T04:41:47.163Z, 22.44
2022-09-28T04:42:47.265Z, 22.48
2022-09-28T04:43:47.266Z, 22.45
2022-09-28T04:44:47.315Z, 22.45
2022-09-28T04:45:47.322Z, 22.42
2022-09-28T04:46:47.338Z, 22.45
2022-09-28T04:47:47.436Z, 22.47
2022-09-28T04:48:47.435Z, 22.44
2022-09-28T04:49:47.440Z, 22.43
2022-09-28T04:50:47.524Z, 22.46
2022-09-28T04:51:47.538Z, 22.44
2022-09-28T04:52:47.527Z, 22.46
2022-09-28T04:53:48.661Z, 22.45
2022-09-28T04:54:47.677Z, 22.45
2022-09-28T04:55:47.654Z, 22.45
2022-09-28T04:56:47.729Z, 22.43
2022-09-28T04:57:48.744Z, 22.45
2022-09-28T04:58:52.476Z, 22.46
2022-09-28T04:59:47.783Z, 22.47
2022-09-28T05:00:47.819Z, 22.44
2022-09-28T05:01:48.919Z, 22.44
2022-09-28T05:02:47.872Z, 22.47
2022-09-28T05:03:47.976Z, 22.46
2022-09-28T05:04:48.015Z, 22.46
2022-09-28T05:05:48.059Z, 22.45
2022-09-28T05:06:48.068Z, 22.43
2022-09-28T05:07:48.054Z, 22.46
2022-09-28T05:08:48.069Z, 22.45
2022-09-28T05:09:48.185Z, 22.45
2022-09-28T05:10:49.186Z, 22.44
2022-09-28T05:11:49.206Z, 22.43
2022-09-28T05:12:48.245Z, 22.46
2022-09-28T05:13:48.263Z, 22.44
2022-09-28T05:14:48.317Z, 22.44
2022-09-28T05:15:48.354Z, 22.44
2022-09-28T05:16:48.500Z, 22.44
2022-09-28T05:17:48.457Z, 22.41
2022-09-28T05:18:48.486Z, 22.42
2022-09-28T05:19:48.500Z, 22.44
2022-09-28T05:20:49.582Z, 22.42
2022-09-28T05:21:48.543Z, 22.43
2022-09-28T05:22:48.590Z, 22.44
2022-09-28T05:23:48.671Z, 22.37
2022-09-28T05:24:48.650Z, 22.21
2022-09-28T05:25:48.660Z, 22.22
2022-09-28T05:26:48.725Z, 22.17
2022-09-28T05:27:48.808Z, 22.15
2022-09-28T05:28:48.797Z, 22.19
2022-09-28T05:29:48.895Z, 22.21
2022-09-28T05:30:48.914Z, 22.16
2022-09-28T05:31:49.043Z, 22.15
2022-09-28T05:32:48.968Z, 21.96
2022-09-28T05:33:48.974Z, 22.12
2022-09-28T05:34:48.999Z, 22.33
2022-09-28T05:35:53.792Z, 22.38
2022-09-28T05:36:49.146Z, 22.37
2022-09-28T05:37:49.125Z, 22.36
2022-09-28T05:38:49.186Z, 22.41
2022-09-28T05:39:49.279Z, 22.40
2022-09-28T05:40:49.353Z, 22.38
2022-09-28T05:41:50.277Z, 22.37
2022-09-28T05:42:49.320Z, 22.39
2022-09-28T05:43:50.373Z, 22.38
2022-09-28T05:44:49.340Z, 22.37
2022-09-28T05:45:55.112Z, 22.39
2022-09-28T05:46:49.457Z, 22.38
2022-09-28T05:47:49.529Z, 22.38
2022-09-28T05:48:49.502Z, 22.39
2022-09-28T05:49:49.573Z, 22.39
2022-09-28T05:50:49.622Z, 22.38
2022-09-28T05:51:49.567Z, 22.41
2022-09-28T05:52:49.623Z, 22.39
2022-09-28T05:53:49.677Z, 22.38
2022-09-28T05:54:49.705Z, 22.41
2022-09-28T05:55:49.758Z, 22.40
2022-09-28T05:56:49.817Z, 22.40
2022-09-28T05:57:49.815Z, 22.40
2022-09-28T05:58:49.837Z, 22.42
2022-09-28T05:59:49.854Z, 22.44
2022-09-28T06:00:49.928Z, 22.40
2022-09-28T06:01:49.923Z, 22.40
2022-09-28T06:02:50.080Z, 22.41
2022-09-28T06:03:50.048Z, 22.45
2022-09-28T06:04:50.081Z, 22.41
2022-09-28T06:05:50.077Z, 22.44
2022-09-28T06:06:50.097Z, 22.42
2022-09-28T06:07:50.176Z, 22.40
2022-09-28T06:08:51.231Z, 22.44
2022-09-28T06:09:50.254Z, 22.41
2022-09-28T06:10:50.245Z, 22.40
2022-09-28T06:11:50.288Z, 22.40
2022-09-28T06:12:51.396Z, 22.41
2022-09-28T06:13:50.350Z, 22.42
2022-09-28T06:14:50.373Z, 22.41
2022-09-28T06:15:50.395Z, 22.38
2022-09-28T06:16:50.466Z, 22.43
2022-09-28T06:17:50.466Z, 22.42
2022-09-28T06:18:51.521Z, 22.40
2022-09-28T06:19:51.565Z, 22.44
2022-09-28T06:20:50.571Z, 22.41
2022-09-28T06:21:50.590Z, 22.41
2022-09-28T06:22:50.659Z, 22.42
2022-09-28T06:23:50.653Z, 22.41
2022-09-28T06:24:50.710Z, 22.42
2022-09-28T06:25:50.700Z, 22.42
2022-09-28T06:26:50.810Z, 22.41
2022-09-28T06:27:50.867Z, 22.38
2022-09-28T06:28:50.858Z, 22.38
2022-09-28T06:29:50.870Z, 22.41
2022-09-28T06:30:50.977Z, 22.37
2022-09-28T06:31:50.997Z, 22.39
2022-09-28T06:32:51.024Z, 22.38
2022-09-28T06:33:51.016Z, 22.39
2022-09-28T06:34:56.046Z, 22.42
2022-09-28T06:35:52.085Z, 22.40
2022-09-28T06:36:51.136Z, 22.40
2022-09-28T06:37:51.153Z, 22.42
2022-09-28T06:38:51.232Z, 22.39
2022-09-28T06:39:51.232Z, 22.41
2022-09-28T06:40:51.273Z, 22.40
2022-09-28T06:41:51.276Z, 22.37
2022-09-28T06:42:51.327Z, 22.38
2022-09-28T06:43:51.424Z, 22.40
2022-09-28T06:44:52.402Z, 22.37
2022-09-28T06:45:51.472Z, 22.40
2022-09-28T06:46:51.462Z, 22.38
2022-09-28T06:47:51.545Z, 22.40
2022-09-28T06:48:51.543Z, 22.41
2022-09-28T06:49:51.585Z, 22.38
2022-09-28T06:50:51.665Z, 22.37
2022-09-28T06:51:51.637Z, 22.39
2022-09-28T06:52:51.679Z, 22.39
2022-09-28T06:53:52.726Z, 22.39
2022-09-28T06:54:51.733Z, 22.40
2022-09-28T06:55:51.763Z, 22.39
2022-09-28T06:56:51.780Z, 22.38
2022-09-28T06:57:52.888Z, 22.41
2022-09-28T06:58:51.926Z, 22.40
2022-09-28T06:59:51.927Z, 22.40
2022-09-28T07:00:52.071Z, 22.41
2022-09-28T07:01:52.007Z, 22.37
2022-09-28T07:02:51.988Z, 22.38
2022-09-28T07:03:55.656Z, 22.40
2022-09-28T07:04:52.046Z, 22.38
2022-09-28T07:05:52.081Z, 22.38
2022-09-28T07:06:52.131Z, 22.37
2022-09-28T07:07:52.199Z, 22.37
2022-09-28T07:09:07.549Z, 22.41
2022-09-28T07:09:55.213Z, 22.38
2022-09-28T07:10:52.301Z, 22.38
2022-09-28T07:11:52.334Z, 22.40
2022-09-28T07:12:52.361Z, 22.40
2022-09-28T07:13:52.365Z, 22.39
2022-09-28T07:14:53.034Z, 22.38
2022-09-28T07:15:52.504Z, 22.39
2022-09-28T07:17:11.279Z, 22.38
2022-09-28T07:17:59.682Z, 22.37
2022-09-28T07:18:52.588Z, 22.39
2022-09-28T07:19:52.639Z, 22.38
2022-09-28T07:20:54.648Z, 22.40
2022-09-28T07:22:03.156Z, 22.36
2022-09-28T07:22:52.664Z, 22.38
2022-09-28T07:23:54.081Z, 22.39
2022-09-28T07:24:52.732Z, 22.36
2022-09-28T07:25:52.788Z, 22.38
2022-09-28T07:26:53.089Z, 22.37
2022-09-28T07:27:52.923Z, 22.36
2022-09-28T07:28:52.941Z, 22.36
2022-09-28T07:29:52.918Z, 22.39
2022-09-28T07:30:53.031Z, 22.40
2022-09-28T07:31:53.032Z, 22.42
2022-09-28T07:32:53.087Z, 22.40
2022-09-28T07:33:53.075Z, 22.41
2022-09-28T07:34:58.065Z, 22.41
2022-09-28T07:35:54.166Z, 22.43
2022-09-28T07:36:53.186Z, 22.39
2022-09-28T07:37:53.244Z, 22.40
2022-09-28T07:38:53.262Z, 22.42
2022-09-28T07:39:53.359Z, 22.40
2022-09-28T07:40:53.445Z, 22.43
2022-09-28T07:41:56.671Z, 22.44
2022-09-28T07:42:53.418Z, 22.40
2022-09-28T07:43:53.496Z, 22.40
2022-09-28T07:44:53.531Z, 22.41
2022-09-28T07:45:53.555Z, 22.43
2022-09-28T07:46:53.520Z, 22.39
2022-09-28T07:47:53.533Z, 22.41
2022-09-28T07:48:53.643Z, 22.41
2022-09-28T07:49:53.624Z, 22.40
2022-09-28T07:50:53.658Z, 22.40
2022-09-28T07:51:53.754Z, 22.40
2022-09-28T07:52:53.781Z, 22.41
2022-09-28T07:53:53.760Z, 22.42
2022-09-28T07:54:53.755Z, 22.44
2022-09-28T07:55:53.799Z, 22.41
2022-09-28T07:56:54.849Z, 22.41
2022-09-28T07:57:53.884Z, 22.42
2022-09-28T07:58:53.898Z, 22.43
2022-09-28T07:59:54.001Z, 22.41
2022-09-28T08:00:55.074Z, 22.40
2022-09-28T08:01:54.049Z, 22.40
2022-09-28T08:02:54.017Z, 22.39
2022-09-28T08:03:54.131Z, 22.44
2022-09-28T08:04:54.099Z, 22.40
2022-09-28T08:05:54.120Z, 22.37
2022-09-28T08:06:54.258Z, 22.40
2022-09-28T08:07:54.223Z, 22.38
2022-09-28T08:08:54.219Z, 22.40
2022-09-28T08:09:54.271Z, 22.43
2022-09-28T08:11:54.342Z, 22.39
2022-09-28T08:12:54.378Z, 22.40
2022-09-28T08:13:54.447Z, 22.38
2022-09-28T08:14:54.507Z, 22.38
2022-09-28T08:15:54.501Z, 22.39
2022-09-28T08:16:54.523Z, 22.38
2022-09-28T08:17:57.985Z, 22.39
2022-09-28T08:18:54.654Z, 22.40
2022-09-28T08:19:54.660Z, 22.41
2022-09-28T08:20:54.657Z, 22.37
2022-09-28T08:21:54.746Z, 22.36
2022-09-28T08:22:54.806Z, 22.37
2022-09-28T08:23:54.761Z, 22.38
2022-09-28T08:24:54.790Z, 22.38
2022-09-28T08:25:54.843Z, 22.36
2022-09-28T08:26:54.863Z, 22.40
2022-09-28T08:27:54.921Z, 22.36
2022-09-28T08:28:55.925Z, 22.37
2022-09-28T08:29:54.950Z, 22.38
2022-09-28T08:30:55.109Z, 22.38
2022-09-28T08:31:58.291Z, 22.36
2022-09-28T08:32:55.108Z, 22.40
2022-09-28T08:33:55.114Z, 22.36
2022-09-28T08:34:55.208Z, 22.36
2022-09-28T08:35:55.219Z, 22.36
2022-09-28T08:36:55.217Z, 22.40
2022-09-28T08:37:56.293Z, 22.36
2022-09-28T08:38:55.242Z, 22.38
2022-09-28T08:39:56.288Z, 22.38
2022-09-28T08:40:55.441Z, 22.40
2022-09-28T08:41:56.380Z, 22.40
2022-09-28T08:42:58.530Z, 22.37
2022-09-28T08:43:55.448Z, 22.36
2022-09-28T08:46:55.522Z, 22.39
2022-09-28T08:47:55.556Z, 22.40
2022-09-28T08:49:20.455Z, 22.41
2022-09-28T08:50:55.631Z, 22.40
2022-09-28T08:51:55.656Z, 22.40
2022-09-28T08:52:55.695Z, 22.41
2022-09-28T08:53:55.737Z, 22.41
2022-09-28T08:54:55.788Z, 22.41
2022-09-28T08:55:55.784Z, 22.40
2022-09-28T08:56:56.033Z, 22.39
2022-09-28T08:57:55.904Z, 22.39
2022-09-28T08:58:55.941Z, 22.39
2022-09-28T08:59:55.907Z, 22.40
2022-09-28T09:00:55.975Z, 22.37
2022-09-28T09:01:57.768Z, 22.38
2022-09-28T09:02:56.081Z, 22.38
2022-09-28T09:03:56.037Z, 22.37
2022-09-28T09:04:56.142Z, 22.40
2022-09-28T09:05:56.155Z, 22.41
2022-09-28T09:06:56.155Z, 22.38
2022-09-28T09:07:56.196Z, 22.39
2022-09-28T09:08:56.201Z, 22.36
2022-09-28T09:09:56.218Z, 22.40
2022-09-28T09:10:56.246Z, 22.41
2022-09-28T09:11:56.283Z, 22.38
2022-09-28T09:12:56.332Z, 22.40
2022-09-28T09:13:56.354Z, 22.39
2022-09-28T09:14:56.376Z, 22.38
2022-09-28T09:15:56.414Z, 22.41
2022-09-28T09:17:00.258Z, 22.40
2022-09-28T09:17:56.509Z, 22.42
2022-09-28T09:18:56.513Z, 22.40
2022-09-28T09:19:56.494Z, 22.39
2022-09-28T09:20:56.618Z, 22.37
2022-09-28T09:21:56.637Z, 22.40
2022-09-28T09:22:56.624Z, 22.37
2022-09-28T09:23:56.664Z, 22.39
2022-09-28T09:24:56.758Z, 22.39
2022-09-28T09:25:56.777Z, 22.39
2022-09-28T09:26:56.798Z, 22.38
2022-09-28T09:27:56.762Z, 22.39
2022-09-28T09:28:56.808Z, 22.39
2022-09-28T09:29:56.906Z, 22.41
2022-09-28T09:30:56.914Z, 22.38
2022-09-28T09:31:56.921Z, 22.39
2022-09-28T09:32:57.007Z, 22.37
2022-09-28T09:33:57.034Z, 22.40
2022-09-28T09:34:57.029Z, 22.41
2022-09-28T09:35:57.086Z, 22.41
2022-09-28T09:36:57.128Z, 22.39
2022-09-28T09:37:58.587Z, 22.41
2022-09-28T09:38:57.156Z, 22.39
2022-09-28T09:39:57.211Z, 22.38
2022-09-28T09:40:57.327Z, 22.40
2022-09-28T09:41:57.303Z, 22.41
2022-09-28T09:42:57.336Z, 22.41
2022-09-28T09:43:57.354Z, 22.43
2022-09-28T09:44:57.338Z, 22.43
2022-09-28T09:45:57.426Z, 22.41
2022-09-28T09:46:57.442Z, 22.40
2022-09-28T09:47:57.461Z, 22.41
2022-09-28T09:48:57.502Z, 22.43
2022-09-28T09:49:57.535Z, 22.42
2022-09-28T09:50:57.561Z, 22.43
2022-09-28T09:51:57.644Z, 22.43
2022-09-28T09:52:57.713Z, 22.43
2022-09-28T09:53:57.675Z, 22.44
2022-09-28T09:54:57.697Z, 22.44
2022-09-28T09:55:57.739Z, 22.44
2022-09-28T09:56:57.839Z, 22.44
2022-09-28T09:57:57.809Z, 22.48
2022-09-28T09:58:57.901Z, 22.47
2022-09-28T09:59:57.843Z, 22.50
2022-09-28T10:00:57.922Z, 22.47
2022-09-28T10:01:58.048Z, 22.48
2022-09-28T10:02:58.020Z, 22.47
2022-09-28T10:03:58.173Z, 22.47
2022-09-28T10:04:58.051Z, 22.48
2022-09-28T10:05:58.088Z, 22.46
2022-09-28T10:06:58.122Z, 22.48
2022-09-28T10:07:58.178Z, 22.49
2022-09-28T10:08:58.201Z, 22.49
2022-09-28T10:09:58.238Z, 22.46
2022-09-28T10:10:58.299Z, 22.49
2022-09-28T10:11:58.304Z, 22.50
2022-09-28T10:12:58.337Z, 22.49
2022-09-28T10:13:58.374Z, 22.51
2022-09-28T10:14:58.478Z, 22.49
2022-09-28T10:15:58.489Z, 22.50
2022-09-28T10:16:58.534Z, 22.50
2022-09-28T10:17:58.495Z, 22.51
2022-09-28T10:18:58.559Z, 22.50
2022-09-28T10:19:58.584Z, 22.52
2022-09-28T10:20:58.686Z, 22.49
2022-09-28T10:21:58.662Z, 22.50
2022-09-28T10:22:58.721Z, 22.36
2022-09-28T10:23:58.726Z, 22.39
2022-09-28T10:24:58.798Z, 22.49
2022-09-28T10:25:58.806Z, 22.49
2022-09-28T10:26:58.782Z, 22.50
2022-09-28T10:27:58.795Z, 22.51
2022-09-28T10:28:58.839Z, 22.50
2022-09-28T10:29:58.880Z, 22.49
2022-09-28T10:30:59.072Z, 22.49
2022-09-28T10:31:58.955Z, 22.46
2022-09-28T10:32:59.053Z, 22.48
2022-09-28T10:33:59.012Z, 22.48
2022-09-28T10:34:59.069Z, 22.50
2022-09-28T10:35:59.055Z, 22.48
2022-09-28T10:36:59.105Z, 22.49
2022-09-28T10:37:59.124Z, 22.48
2022-09-28T10:38:59.220Z, 22.49
2022-09-28T10:39:59.216Z, 22.48
2022-09-28T10:40:59.284Z, 22.48
2022-09-28T10:41:59.239Z, 22.50
2022-09-28T10:42:59.285Z, 22.50
2022-09-28T10:43:59.308Z, 22.50
2022-09-28T10:44:59.351Z, 22.50
2022-09-28T10:45:59.493Z, 22.52
2022-09-28T10:46:59.421Z, 22.49
2022-09-28T10:47:59.421Z, 22.47
2022-09-28T10:48:59.534Z, 22.48
2022-09-28T10:49:59.526Z, 22.47
2022-09-28T10:50:59.536Z, 22.50
2022-09-28T10:51:59.663Z, 22.49
2022-09-28T10:52:59.629Z, 22.50
2022-09-28T10:53:59.718Z, 22.49
2022-09-28T10:54:59.703Z, 22.52
2022-09-28T10:55:59.692Z, 22.48
2022-09-28T10:56:59.852Z, 22.46
2022-09-28T10:57:59.858Z, 22.48
2022-09-28T10:58:59.834Z, 22.44
2022-09-28T10:59:59.846Z, 22.48
2022-09-28T11:00:59.930Z, 22.48
2022-09-28T11:02:00.038Z, 22.50
2022-09-28T11:03:00.038Z, 22.51
2022-09-28T11:03:59.958Z, 22.52
2022-09-28T11:05:00.000Z, 22.53
2022-09-28T11:06:00.068Z, 22.56
2022-09-28T11:08:00.178Z, 22.50
2022-09-28T11:09:00.205Z, 22.51
2022-09-28T11:10:00.272Z, 22.49
2022-09-28T11:11:00.267Z, 22.48
2022-09-28T11:12:00.286Z, 22.51
2022-09-28T11:13:00.367Z, 22.51
2022-09-28T11:14:00.354Z, 22.50
2022-09-28T11:15:00.397Z, 22.52
2022-09-28T11:16:00.446Z, 22.47
2022-09-28T11:17:00.531Z, 22.51
2022-09-28T11:18:00.492Z, 22.48
2022-09-28T11:19:00.547Z, 22.49
2022-09-28T11:20:00.562Z, 22.50
2022-09-28T11:21:00.582Z, 22.51
2022-09-28T11:22:00.623Z, 22.47
2022-09-28T11:23:00.651Z, 22.54
2022-09-28T11:24:00.774Z, 22.51
2022-09-28T11:25:00.733Z, 22.48
2022-09-28T11:26:00.774Z, 22.54
2022-09-28T11:27:00.794Z, 22.52
2022-09-28T11:28:00.851Z, 22.51
2022-09-28T11:29:00.864Z, 22.53
2022-09-28T11:30:00.896Z, 22.52
2022-09-28T11:31:01.043Z, 22.47
2022-09-28T11:32:00.982Z, 22.51
2022-09-28T11:33:01.069Z, 22.49
2022-09-28T11:34:01.051Z, 22.52
2022-09-28T11:35:01.114Z, 22.48
2022-09-28T11:36:01.096Z, 22.50
2022-09-28T11:37:01.985Z, 22.51
2022-09-28T11:38:01.117Z, 22.51
2022-09-28T11:39:01.178Z, 22.50
2022-09-28T11:40:01.276Z, 22.51
2022-09-28T11:41:01.390Z, 22.52
2022-09-28T11:42:01.275Z, 22.48
2022-09-28T11:43:01.359Z, 22.50
2022-09-28T11:44:01.348Z, 22.50
2022-09-28T11:45:01.373Z, 22.51
2022-09-28T11:46:01.491Z, 22.52
2022-09-28T11:47:01.514Z, 22.49
2022-09-28T11:48:01.519Z, 22.50
2022-09-28T11:49:01.547Z, 22.51
2022-09-28T11:50:01.559Z, 22.50
2022-09-28T11:51:01.592Z, 22.49
2022-09-28T11:52:01.613Z, 22.53
2022-09-28T11:53:01.716Z, 22.50
2022-09-28T11:54:01.699Z, 22.51
2022-09-28T11:55:01.698Z, 22.50
2022-09-28T11:56:05.321Z, 22.51
2022-09-28T11:57:01.888Z, 22.49
2022-09-28T11:58:01.933Z, 22.50
2022-09-28T11:59:01.872Z, 22.47
2022-09-28T12:00:01.927Z, 22.50
2022-09-28T12:01:01.956Z, 22.52
2022-09-28T12:02:02.059Z, 22.52
2022-09-28T12:03:02.232Z, 22.48
2022-09-28T12:04:02.045Z, 22.50
2022-09-28T12:05:02.123Z, 22.52
2022-09-28T12:06:02.135Z, 22.50
2022-09-28T12:07:02.160Z, 22.52
2022-09-28T12:08:02.188Z, 22.51
2022-09-28T12:09:02.255Z, 22.51
2022-09-28T12:10:02.316Z, 22.51
2022-09-28T12:11:02.310Z, 22.51
2022-09-28T12:12:02.323Z, 22.52
2022-09-28T12:13:02.377Z, 22.52
2022-09-28T12:14:02.446Z, 22.51
2022-09-28T12:15:02.451Z, 22.51
2022-09-28T12:16:38.432Z, 22.51
2022-09-28T12:17:07.335Z, 22.53
2022-09-28T12:18:02.605Z, 22.52
2022-09-28T12:19:02.622Z, 22.52
2022-09-28T12:20:02.585Z, 22.49
2022-09-28T12:21:05.098Z, 22.52
2022-09-28T12:22:02.665Z, 22.53
2022-09-28T12:23:02.738Z, 22.53
2022-09-28T12:24:02.732Z, 22.52
2022-09-28T12:25:02.830Z, 22.54
2022-09-28T12:26:02.856Z, 22.52
2022-09-28T12:27:02.833Z, 22.50
2022-09-28T12:28:02.819Z, 22.52
2022-09-28T12:29:02.881Z, 22.53
2022-09-28T12:30:03.030Z, 22.53
2022-09-28T12:31:03.009Z, 22.49
2022-09-28T12:32:03.001Z, 22.51
2022-09-28T12:33:03.071Z, 22.52
2022-09-28T12:34:03.049Z, 22.53